logo dgac
Martes 06 de Diciembre del 2022
Buscar por aerodromo o helipuerto
Ingrese nombre de aeródromo, localidad o designador OACI:
TAF: TAF SCCH 051620Z 0518/0606 24008KT CAVOK TX30/0519Z TN15/0606Z TEMPO 0518/0522 28010KT
TAF del 05/12/2022 a las 16:20 UTC
Para mayor información visite www.meteochile.cl
Período de validez: desde el 05 a las 18:00 UTC hasta el 06 a las 06:00 UTC
Viento: dirección 240 grados, velocidad 8 nudos
Visibilidad: 10 km o más,
    sin nubes bajo los 5.000 pies o bajo del MSA (Mínimo de Seguridad del Aeródromo),
    sin cumulonimbus, y sin fenómenos de tiempo significativo en el aeródromo o alrededores
Temperatura máxima: 30ºC el 05 a las 19:00 UTC
Temperatura mínima: 15ºC el 06 a las 06:00 UTC
Se espera en forma temporal entre las 18:00 UTC del 05 y las 22:00 UTC del 05:
Viento: dirección 280 grados, velocidad 10 nudos